Burley in Wharfedale, United Kingdom
Current Conditions -  °F | °C
As of 3:50 AM on Friday 31 Oct 2014 (Local Time) from EGXD Reporting Station
Haze Haze  
Wind Chill: 59°   Ceiling: 22000
Heat Index: 59°   Visibility: 3mi
Dew Point: 55°   Wind: 8mph
Humidity: 88%   Direction: 130°SE
Pressure: 29.91"   Gusts: NA
Location:  53.91°N, 1.76°W
Report Text: EGXD 310350Z 13007KT 5000 HZ SCT034 OVC220 15/13 Q1013 WHT
Loading
Personal Weather Stations






























Interactive Weather Map
Tropical Storm Tracking
New forecast layout! Learn more

10-Day Weather Forecast

Advertisements
Track Severe Weather on mobile